createdAt,value
2023-08-28T00:00:46.281Z,12.01
2023-08-28T00:03:13.718Z,12.00
2023-08-28T00:05:40.930Z,11.96
2023-08-28T00:08:10.040Z,11.97
2023-08-28T00:10:37.391Z,12.00
2023-08-28T00:13:04.843Z,12.04
2023-08-28T00:15:32.021Z,12.12
2023-08-28T00:17:59.024Z,12.14
2023-08-28T00:20:26.110Z,12.15
2023-08-28T00:22:53.014Z,12.15
2023-08-28T00:25:20.239Z,12.13
2023-08-28T00:27:47.544Z,12.12
2023-08-28T00:30:14.704Z,12.12
2023-08-28T00:32:41.870Z,12.14
2023-08-28T00:35:09.458Z,12.16
2023-08-28T00:37:36.376Z,12.20
2023-08-28T00:40:04.426Z,12.25
2023-08-28T00:42:31.428Z,12.24
2023-08-28T00:44:58.425Z,12.27
2023-08-28T00:47:26.330Z,12.25
2023-08-28T00:49:53.509Z,12.24
2023-08-28T00:52:20.479Z,12.28
2023-08-28T00:54:48.684Z,12.29
2023-08-28T00:57:18.693Z,12.27
2023-08-28T00:59:47.049Z,12.28
2023-08-28T01:02:14.193Z,12.27
2023-08-28T01:04:41.276Z,12.25
2023-08-28T01:07:24.854Z,12.21
2023-08-28T01:10:07.054Z,12.20
2023-08-28T01:12:52.861Z,12.22
2023-08-28T01:15:21.947Z,12.14
2023-08-28T01:18:09.390Z,12.13
2023-08-28T01:20:38.169Z,12.11
2023-08-28T01:23:16.113Z,12.06
2023-08-28T01:25:43.214Z,12.04
2023-08-28T01:28:10.346Z,12.01
2023-08-28T01:30:37.341Z,12.00
2023-08-28T01:33:05.199Z,12.00
2023-08-28T01:35:33.254Z,12.02
2023-08-28T01:38:20.741Z,11.99
2023-08-28T01:41:08.940Z,11.94
2023-08-28T01:43:40.331Z,11.91
2023-08-28T01:46:08.146Z,11.91
2023-08-28T01:48:36.655Z,11.92
2023-08-28T01:51:03.861Z,11.94
2023-08-28T01:53:31.248Z,11.98
2023-08-28T01:56:10.372Z,11.98
2023-08-28T01:58:51.501Z,12.00
2023-08-28T02:01:19.896Z,12.03
2023-08-28T02:03:47.576Z,12.01
2023-08-28T02:06:14.820Z,11.98
2023-08-28T02:08:41.761Z,11.94
2023-08-28T02:11:08.762Z,11.91
2023-08-28T02:13:35.886Z,11.87
2023-08-28T02:16:03.939Z,11.88
2023-08-28T02:18:31.623Z,11.86
2023-08-28T02:20:59.898Z,11.82
2023-08-28T02:23:30.020Z,11.83
2023-08-28T02:25:57.017Z,11.82
2023-08-28T02:28:24.093Z,11.82
2023-08-28T02:30:51.031Z,11.76
2023-08-28T02:33:18.404Z,11.77
2023-08-28T02:35:46.009Z,11.74
2023-08-28T02:38:13.181Z,11.72
2023-08-28T02:40:40.449Z,11.70
2023-08-28T02:43:08.467Z,11.74
2023-08-28T02:45:40.854Z,11.79
2023-08-28T02:48:10.681Z,11.84
2023-08-28T02:50:38.525Z,11.95
2023-08-28T02:53:05.902Z,12.05
2023-08-28T02:55:41.470Z,12.10
2023-08-28T02:58:10.937Z,12.17
2023-08-28T03:00:39.252Z,12.22
2023-08-28T03:03:06.969Z,12.27
2023-08-28T03:05:34.549Z,12.39
2023-08-28T03:08:01.563Z,12.47
2023-08-28T03:10:31.132Z,12.47
2023-08-28T03:12:58.677Z,12.44
2023-08-28T03:15:25.669Z,12.36
2023-08-28T03:17:52.723Z,12.27
2023-08-28T03:20:19.670Z,12.19
2023-08-28T03:22:47.304Z,12.10
2023-08-28T03:25:15.120Z,12.01
2023-08-28T03:27:42.044Z,11.93
2023-08-28T03:30:10.505Z,11.85
2023-08-28T03:32:37.497Z,11.82
2023-08-28T03:35:04.723Z,11.80
2023-08-28T03:37:31.711Z,11.80
2023-08-28T03:39:58.703Z,11.72
2023-08-28T03:42:25.625Z,11.70
2023-08-28T03:44:52.657Z,11.71
2023-08-28T03:47:19.515Z,11.68
2023-08-28T03:49:46.679Z,11.66
2023-08-28T03:52:13.515Z,11.64
2023-08-28T03:54:41.081Z,11.68
2023-08-28T03:57:07.963Z,11.76
2023-08-28T03:59:35.052Z,11.74
2023-08-28T04:02:03.592Z,11.85
2023-08-28T04:04:31.353Z,11.88
2023-08-28T04:07:03.421Z,11.88
2023-08-28T04:09:31.163Z,11.84
2023-08-28T04:11:58.276Z,11.83
2023-08-28T04:14:25.395Z,11.78
2023-08-28T04:16:52.314Z,11.69
2023-08-28T04:19:19.320Z,11.67
2023-08-28T04:21:46.376Z,11.69
2023-08-28T04:24:13.319Z,11.71
2023-08-28T04:26:40.296Z,11.71
2023-08-28T04:29:07.188Z,11.72
2023-08-28T04:31:34.299Z,11.77
2023-08-28T04:34:01.206Z,11.80
2023-08-28T04:36:28.217Z,11.75
2023-08-28T04:38:55.863Z,11.72
2023-08-28T04:41:22.937Z,11.68
2023-08-28T04:43:49.885Z,11.62
2023-08-28T04:46:17.294Z,11.61
2023-08-28T04:48:44.300Z,11.56
2023-08-28T04:51:11.248Z,11.55
2023-08-28T04:53:38.326Z,11.55
2023-08-28T04:56:05.577Z,11.63
2023-08-28T04:58:32.809Z,11.66
2023-08-28T05:00:59.893Z,11.66
2023-08-28T05:03:27.027Z,11.68
2023-08-28T05:05:54.370Z,11.75
2023-08-28T05:08:21.945Z,11.87
2023-08-28T05:10:48.881Z,11.96
2023-08-28T05:13:16.014Z,12.03
2023-08-28T05:15:42.946Z,12.03
2023-08-28T05:18:13.335Z,12.07
2023-08-28T05:20:42.674Z,12.07
2023-08-28T05:23:10.214Z,12.10
2023-08-28T05:25:37.425Z,12.15
2023-08-28T05:28:04.824Z,12.15
2023-08-28T05:30:31.822Z,12.19
2023-08-28T05:32:59.131Z,12.29
2023-08-28T05:35:26.093Z,12.37
2023-08-28T05:37:53.897Z,12.45
2023-08-28T05:40:20.779Z,12.52
2023-08-28T05:42:47.888Z,12.60
2023-08-28T05:45:14.903Z,12.67
2023-08-28T05:47:42.812Z,12.65
2023-08-28T05:50:10.265Z,12.64
2023-08-28T05:52:39.051Z,12.64
2023-08-28T05:55:06.995Z,12.68
2023-08-28T05:57:35.843Z,12.74
2023-08-28T06:00:05.397Z,12.81
2023-08-28T06:02:39.760Z,12.90
2023-08-28T06:05:07.700Z,12.98
2023-08-28T06:07:35.078Z,13.09
2023-08-28T06:10:04.520Z,13.16
2023-08-28T06:12:31.450Z,13.27
2023-08-28T06:14:58.505Z,13.32
2023-08-28T06:17:25.460Z,13.36
2023-08-28T06:19:52.567Z,13.47
2023-08-28T06:22:20.636Z,13.54
2023-08-28T06:24:54.027Z,13.59
2023-08-28T06:27:21.421Z,13.72
2023-08-28T06:29:48.490Z,13.81
2023-08-28T06:32:16.283Z,13.90
2023-08-28T06:34:43.297Z,13.96
2023-08-28T06:37:10.157Z,14.07
2023-08-28T06:39:37.266Z,14.17
2023-08-28T06:42:04.390Z,14.26
2023-08-28T06:44:34.809Z,14.37
2023-08-28T06:47:01.689Z,14.53
2023-08-28T06:49:29.261Z,14.63
2023-08-28T06:51:56.342Z,14.74
2023-08-28T06:54:23.413Z,14.74
2023-08-28T06:56:50.317Z,14.88
2023-08-28T06:59:17.397Z,15.05
2023-08-28T07:01:44.754Z,15.22
2023-08-28T07:04:11.798Z,15.28
2023-08-28T07:06:38.661Z,15.34
2023-08-28T07:09:05.750Z,15.38
2023-08-28T07:11:32.689Z,15.41
2023-08-28T07:13:59.933Z,15.40
2023-08-28T07:16:27.125Z,15.42
2023-08-28T07:18:54.366Z,15.48
2023-08-28T07:21:22.102Z,15.62
2023-08-28T07:23:51.976Z,15.72
2023-08-28T07:26:19.979Z,15.88
2023-08-28T07:28:49.860Z,15.94
2023-08-28T07:31:17.064Z,15.98
2023-08-28T07:33:44.150Z,15.98
2023-08-28T07:36:11.302Z,16.06
2023-08-28T07:38:38.242Z,16.16
2023-08-28T07:41:05.478Z,16.24
2023-08-28T07:43:32.388Z,16.28
2023-08-28T07:45:59.349Z,16.39
2023-08-28T07:48:26.420Z,16.51
2023-08-28T07:50:53.467Z,16.60
2023-08-28T07:53:21.771Z,16.61
2023-08-28T07:55:48.846Z,16.62
2023-08-28T07:58:15.765Z,16.77
2023-08-28T08:00:43.968Z,16.63
2023-08-28T08:03:10.996Z,16.68
2023-08-28T08:05:38.120Z,16.83
2023-08-28T08:08:05.543Z,16.89
2023-08-28T08:10:33.625Z,17.02
2023-08-28T08:13:00.719Z,17.17
2023-08-28T08:15:28.074Z,17.24
2023-08-28T08:17:55.042Z,17.31
2023-08-28T08:20:22.304Z,17.42
2023-08-28T08:22:49.372Z,17.52
2023-08-28T08:25:16.515Z,17.73
2023-08-28T08:27:46.167Z,17.91
2023-08-28T08:30:14.980Z,17.97
2023-08-28T08:32:42.140Z,18.20
2023-08-28T08:35:10.543Z,18.36
2023-08-28T08:37:40.762Z,18.42
2023-08-28T08:40:15.078Z,18.64
2023-08-28T08:42:42.214Z,18.79
2023-08-28T08:45:11.087Z,18.60
2023-08-28T08:47:40.539Z,18.40
2023-08-28T08:50:09.851Z,18.55
2023-08-28T08:52:39.773Z,18.42
2023-08-28T08:55:30.839Z,18.10
2023-08-28T08:57:59.149Z,17.88
2023-08-28T09:00:27.243Z,17.77
2023-08-28T09:02:54.793Z,17.73
2023-08-28T09:05:21.894Z,17.85
2023-08-28T09:07:49.694Z,17.96
2023-08-28T09:10:16.873Z,18.17
2023-08-28T09:12:44.219Z,18.18
2023-08-28T09:15:14.385Z,18.37
2023-08-28T09:17:42.552Z,18.45
2023-08-28T09:20:14.698Z,18.47
2023-08-28T09:22:53.955Z,18.78
2023-08-28T09:25:23.847Z,19.04
2023-08-28T09:27:53.274Z,19.11
2023-08-28T09:30:31.513Z,19.57
2023-08-28T09:33:00.953Z,19.99
2023-08-28T09:35:29.178Z,19.85
2023-08-28T09:37:57.986Z,19.42
2023-08-28T09:40:33.483Z,18.94
2023-08-28T09:43:01.215Z,18.41
2023-08-28T09:45:35.521Z,18.12
2023-08-28T09:48:07.110Z,17.93
2023-08-28T09:50:36.363Z,18.42
2023-08-28T09:53:08.454Z,19.69
2023-08-28T09:55:53.031Z,20.86
2023-08-28T09:58:23.300Z,21.61
2023-08-28T10:00:51.850Z,22.25
2023-08-28T10:03:19.113Z,22.85
2023-08-28T10:05:47.198Z,23.00
2023-08-28T10:08:16.320Z,22.82
2023-08-28T10:10:47.324Z,21.44
2023-08-28T10:13:20.847Z,20.27
2023-08-28T10:16:15.296Z,19.96
2023-08-28T10:18:50.112Z,20.88
2023-08-28T10:21:18.107Z,21.88
2023-08-28T10:23:46.241Z,22.73
2023-08-28T10:26:14.631Z,23.14
2023-08-28T10:28:42.621Z,23.04
2023-08-28T10:31:10.387Z,23.61
2023-08-28T10:33:37.779Z,23.90
2023-08-28T10:36:10.575Z,24.63
2023-08-28T10:38:43.845Z,23.83
2023-08-28T10:41:15.100Z,23.98
2023-08-28T10:43:42.178Z,23.82
2023-08-28T10:46:10.045Z,23.66
2023-08-28T10:48:40.679Z,23.94
2023-08-28T10:51:13.488Z,23.75
2023-08-28T10:53:41.050Z,22.73
2023-08-28T10:56:08.102Z,21.80
2023-08-28T10:58:38.650Z,23.22
2023-08-28T11:01:19.161Z,23.01
2023-08-28T11:03:52.293Z,21.90
2023-08-28T11:06:49.056Z,21.57
2023-08-28T11:09:28.871Z,21.24
2023-08-28T11:11:59.115Z,21.75
2023-08-28T11:14:43.277Z,21.95
2023-08-28T11:17:21.159Z,23.06
2023-08-28T11:19:57.612Z,22.98
2023-08-28T11:22:31.237Z,24.34
2023-08-28T11:24:59.036Z,24.27
2023-08-28T11:27:43.752Z,24.46
2023-08-28T11:30:13.249Z,25.08
2023-08-28T11:32:42.532Z,25.57
2023-08-28T11:35:10.820Z,25.11
2023-08-28T11:37:43.312Z,25.14
2023-08-28T11:40:11.179Z,24.90
2023-08-28T11:42:39.342Z,25.12
2023-08-28T11:45:07.679Z,24.39
2023-08-28T11:47:35.372Z,26.15
2023-08-28T11:50:05.875Z,25.49
2023-08-28T11:52:33.681Z,25.08
2023-08-28T11:55:05.235Z,24.67
2023-08-28T11:57:34.203Z,24.66
2023-08-28T12:00:06.140Z,23.47
2023-08-28T12:02:44.502Z,24.13
2023-08-28T12:05:13.416Z,24.03
2023-08-28T12:07:44.492Z,24.44
2023-08-28T12:10:13.219Z,23.96
2023-08-28T12:12:40.220Z,25.04
2023-08-28T12:15:09.638Z,25.05
2023-08-28T12:17:37.812Z,25.07
2023-08-28T12:20:08.015Z,25.16
2023-08-28T12:22:43.546Z,24.51
2023-08-28T12:25:10.539Z,24.19
2023-08-28T12:27:37.464Z,23.96
2023-08-28T12:30:06.306Z,24.29
2023-08-28T12:32:34.048Z,24.78
2023-08-28T12:35:13.591Z,24.96
2023-08-28T12:37:42.006Z,24.91
2023-08-28T12:40:12.258Z,25.33
2023-08-28T12:42:40.334Z,25.05
2023-08-28T12:45:07.843Z,24.58
2023-08-28T12:47:35.091Z,23.90
2023-08-28T12:50:01.986Z,23.30
2023-08-28T12:52:31.530Z,23.14
2023-08-28T12:55:00.239Z,23.91
2023-08-28T12:57:27.355Z,22.88
2023-08-28T12:59:54.295Z,22.08
2023-08-28T13:02:21.397Z,21.99
2023-08-28T13:04:49.050Z,22.51
2023-08-28T13:07:18.611Z,23.16
2023-08-28T13:09:47.672Z,23.51
2023-08-28T13:12:14.560Z,22.98
2023-08-28T13:14:41.627Z,22.63
2023-08-28T13:17:08.482Z,21.82
2023-08-28T13:19:35.548Z,22.30
2023-08-28T13:22:04.446Z,22.38
2023-08-28T13:24:42.983Z,21.82
2023-08-28T13:27:12.168Z,22.57
2023-08-28T13:29:39.544Z,22.15
2023-08-28T13:32:06.926Z,22.64
2023-08-28T13:34:33.790Z,22.68
2023-08-28T13:37:06.712Z,22.34
2023-08-28T13:39:34.310Z,21.99
2023-08-28T13:42:01.301Z,22.90
2023-08-28T13:44:30.399Z,22.12
2023-08-28T13:46:58.575Z,22.26
2023-08-28T13:49:25.574Z,22.70
2023-08-28T13:51:52.908Z,22.61
2023-08-28T13:54:20.080Z,22.28
2023-08-28T13:56:46.958Z,21.55
2023-08-28T13:59:14.098Z,20.79
2023-08-28T14:01:42.467Z,21.31
2023-08-28T14:04:10.498Z,22.17
2023-08-28T14:06:37.423Z,22.62
2023-08-28T14:09:05.351Z,22.58
2023-08-28T14:11:32.430Z,21.88
2023-08-28T14:13:59.570Z,22.13
2023-08-28T14:16:26.503Z,21.86
2023-08-28T14:18:53.589Z,21.33
2023-08-28T14:21:20.497Z,21.25
2023-08-28T14:23:47.528Z,21.65
2023-08-28T14:26:14.536Z,21.52
2023-08-28T14:28:41.706Z,21.57
2023-08-28T14:31:08.607Z,21.51
2023-08-28T14:33:37.575Z,21.16
2023-08-28T14:36:04.961Z,20.74
2023-08-28T14:38:32.653Z,21.06
2023-08-28T14:40:59.900Z,21.25
2023-08-28T14:43:27.006Z,21.00
2023-08-28T14:45:53.935Z,20.89
2023-08-28T14:48:21.265Z,20.81
2023-08-28T14:50:48.237Z,20.50
2023-08-28T14:53:15.284Z,19.91
2023-08-28T14:55:42.208Z,19.85
2023-08-28T14:58:09.167Z,19.83
2023-08-28T15:00:36.331Z,19.86
2023-08-28T15:03:04.528Z,19.98
2023-08-28T15:05:32.989Z,19.72
2023-08-28T15:08:11.801Z,19.58
2023-08-28T15:10:44.003Z,19.49
2023-08-28T15:13:10.953Z,19.43
2023-08-28T15:15:42.456Z,19.11
2023-08-28T15:18:09.644Z,19.19
2023-08-28T15:20:36.606Z,19.15
2023-08-28T15:23:04.752Z,19.14
2023-08-28T15:25:31.884Z,18.94
2023-08-28T15:27:58.922Z,18.69
2023-08-28T15:30:26.074Z,18.76
2023-08-28T15:32:53.010Z,18.84
2023-08-28T15:35:20.097Z,19.05
2023-08-28T15:37:47.157Z,19.26
2023-08-28T15:40:14.519Z,19.27
2023-08-28T15:42:41.477Z,19.15
2023-08-28T15:45:08.808Z,19.15
2023-08-28T15:47:37.528Z,19.10
2023-08-28T15:50:05.815Z,18.99
2023-08-28T15:52:32.685Z,18.91
2023-08-28T15:54:59.677Z,18.80
2023-08-28T15:57:26.520Z,18.72
2023-08-28T15:59:53.503Z,18.82
2023-08-28T16:02:20.365Z,18.81
2023-08-28T16:04:48.911Z,18.79
2023-08-28T16:07:16.016Z,18.73
2023-08-28T16:09:43.155Z,18.76
2023-08-28T16:12:10.155Z,18.74
2023-08-28T16:14:37.279Z,18.81
2023-08-28T16:17:04.774Z,18.78
2023-08-28T16:19:31.855Z,18.80
2023-08-28T16:21:58.856Z,18.82
2023-08-28T16:24:25.915Z,18.78
2023-08-28T16:26:52.852Z,18.80
2023-08-28T16:29:19.924Z,18.65
2023-08-28T16:31:46.812Z,18.67
2023-08-28T16:34:14.187Z,18.64
2023-08-28T16:36:41.027Z,18.67
2023-08-28T16:39:08.863Z,18.68
2023-08-28T16:41:36.079Z,18.54
2023-08-28T16:44:03.657Z,18.58
2023-08-28T16:46:31.704Z,18.60
2023-08-28T16:48:58.695Z,18.59
2023-08-28T16:51:25.924Z,18.69
2023-08-28T16:53:53.707Z,18.73
2023-08-28T16:56:21.144Z,18.64
2023-08-28T16:58:48.118Z,18.68
2023-08-28T17:01:15.172Z,18.69
2023-08-28T17:03:42.175Z,18.61
2023-08-28T17:06:09.247Z,18.69
2023-08-28T17:08:36.330Z,18.63
2023-08-28T17:11:03.440Z,18.58
2023-08-28T17:13:30.355Z,18.58
2023-08-28T17:15:57.620Z,18.49
2023-08-28T17:18:24.552Z,18.38
2023-08-28T17:20:51.595Z,18.33
2023-08-28T17:23:18.545Z,18.30
2023-08-28T17:25:45.939Z,18.34
2023-08-28T17:28:13.877Z,18.21
2023-08-28T17:30:41.018Z,18.23
2023-08-28T17:33:08.246Z,18.28
2023-08-28T17:35:35.575Z,18.23
2023-08-28T17:38:02.456Z,18.22
2023-08-28T17:40:30.870Z,18.14
2023-08-28T17:42:57.734Z,18.22
2023-08-28T17:45:24.722Z,18.21
2023-08-28T17:47:51.739Z,18.14
2023-08-28T17:50:19.915Z,17.98
2023-08-28T17:52:47.003Z,17.91
2023-08-28T17:55:13.950Z,17.80
2023-08-28T17:57:41.017Z,17.69
2023-08-28T18:00:08.621Z,17.59
2023-08-28T18:02:59.007Z,17.51
2023-08-28T18:05:28.218Z,17.45
2023-08-28T18:07:55.363Z,17.33
2023-08-28T18:10:22.330Z,17.28
2023-08-28T18:12:49.350Z,17.24
2023-08-28T18:15:18.480Z,17.19
2023-08-28T18:17:47.168Z,17.17
2023-08-28T18:20:14.205Z,17.06
2023-08-28T18:22:41.273Z,16.97
2023-08-28T18:25:08.667Z,16.82
2023-08-28T18:27:42.906Z,16.70
2023-08-28T18:30:16.637Z,16.55
2023-08-28T18:32:43.715Z,16.43
2023-08-28T18:35:10.960Z,16.39
2023-08-28T18:37:37.870Z,16.36
2023-08-28T18:40:06.617Z,16.29
2023-08-28T18:42:34.171Z,16.22
2023-08-28T18:45:01.242Z,16.15
2023-08-28T18:47:28.115Z,16.06
2023-08-28T18:49:55.153Z,15.96
2023-08-28T18:52:22.036Z,16.00
2023-08-28T18:54:49.075Z,15.98
2023-08-28T18:57:15.990Z,15.89
2023-08-28T18:59:42.966Z,15.80
2023-08-28T19:02:09.960Z,15.73
2023-08-28T19:04:37.244Z,15.69
2023-08-28T19:07:04.924Z,15.65
2023-08-28T19:09:31.831Z,15.58
2023-08-28T19:11:58.961Z,15.56
2023-08-28T19:14:25.858Z,15.51
2023-08-28T19:16:52.915Z,15.47
2023-08-28T19:19:19.929Z,15.35
2023-08-28T19:21:47.024Z,15.30
2023-08-28T19:24:13.973Z,15.28
2023-08-28T19:26:41.035Z,15.28
2023-08-28T19:29:07.972Z,15.25
2023-08-28T19:31:35.100Z,15.28
2023-08-28T19:34:02.122Z,15.20
2023-08-28T19:36:29.027Z,15.11
2023-08-28T19:38:56.284Z,15.05
2023-08-28T19:41:23.150Z,15.06
2023-08-28T19:43:50.308Z,15.02
2023-08-28T19:46:17.257Z,15.00
2023-08-28T19:48:46.204Z,14.95
2023-08-28T19:51:13.060Z,14.93
2023-08-28T19:53:40.940Z,14.92
2023-08-28T19:56:07.925Z,14.82
2023-08-28T19:58:34.945Z,14.82
2023-08-28T20:01:02.587Z,14.73
2023-08-28T20:03:29.926Z,14.68
2023-08-28T20:06:06.498Z,14.65
2023-08-28T20:08:33.739Z,14.59
2023-08-28T20:11:00.843Z,14.54
2023-08-28T20:13:27.771Z,14.51
2023-08-28T20:15:54.827Z,14.47
2023-08-28T20:18:23.918Z,14.44
2023-08-28T20:20:50.929Z,14.38
2023-08-28T20:23:17.867Z,14.34
2023-08-28T20:25:45.719Z,14.32
2023-08-28T20:28:12.777Z,14.28
2023-08-28T20:30:39.761Z,14.29
2023-08-28T20:33:06.886Z,14.24
2023-08-28T20:35:34.015Z,14.21
2023-08-28T20:38:00.930Z,14.18
2023-08-28T20:40:28.201Z,14.14
2023-08-28T20:42:55.172Z,14.11
2023-08-28T20:45:23.052Z,14.10
2023-08-28T20:47:52.962Z,14.10
2023-08-28T20:50:20.294Z,14.10
2023-08-28T20:52:47.736Z,14.07
2023-08-28T20:55:14.764Z,14.03
2023-08-28T20:57:42.091Z,14.01
2023-08-28T21:00:09.901Z,14.03
2023-08-28T21:02:37.545Z,13.99
2023-08-28T21:05:05.220Z,13.92
2023-08-28T21:07:32.375Z,13.91
2023-08-28T21:09:59.252Z,13.92
2023-08-28T21:12:26.276Z,13.88
2023-08-28T21:14:53.149Z,13.84
2023-08-28T21:17:20.126Z,13.82
2023-08-28T21:19:47.295Z,13.82
2023-08-28T21:22:14.358Z,13.85
2023-08-28T21:24:41.213Z,13.86
2023-08-28T21:27:08.236Z,13.81
2023-08-28T21:29:35.141Z,13.78
2023-08-28T21:32:02.908Z,13.77
2023-08-28T21:34:29.982Z,13.74
2023-08-28T21:36:57.096Z,13.77
2023-08-28T21:39:24.267Z,13.79
2023-08-28T21:41:51.205Z,13.82
2023-08-28T21:44:18.385Z,13.84
2023-08-28T21:46:45.270Z,13.95
2023-08-28T21:49:31.155Z,13.98
2023-08-28T21:52:17.067Z,13.96
2023-08-28T21:55:02.576Z,13.98
2023-08-28T21:57:48.181Z,13.96
2023-08-28T22:00:36.826Z,13.88
2023-08-28T22:03:22.469Z,13.87
2023-08-28T22:06:08.109Z,13.80
2023-08-28T22:08:35.310Z,13.79
2023-08-28T22:11:22.238Z,13.74
2023-08-28T22:13:57.392Z,13.67
2023-08-28T22:16:24.506Z,13.65
2023-08-28T22:18:51.734Z,13.63
2023-08-28T22:21:19.900Z,13.57
2023-08-28T22:23:47.171Z,13.56
2023-08-28T22:26:16.131Z,13.57
2023-08-28T22:28:43.218Z,13.49
2023-08-28T22:31:10.109Z,13.48
2023-08-28T22:33:37.175Z,13.45
2023-08-28T22:36:04.134Z,13.37
2023-08-28T22:38:31.148Z,13.35
2023-08-28T22:40:58.548Z,13.32
2023-08-28T22:43:26.038Z,13.31
2023-08-28T22:45:53.150Z,13.29
2023-08-28T22:48:20.168Z,13.24
2023-08-28T22:50:47.134Z,13.26
2023-08-28T22:53:14.148Z,13.17
2023-08-28T22:55:41.025Z,13.16
2023-08-28T22:58:08.278Z,13.12
2023-08-28T23:00:36.337Z,13.02
2023-08-28T23:03:03.418Z,13.01
2023-08-28T23:05:30.464Z,12.96
2023-08-28T23:07:57.702Z,12.94
2023-08-28T23:10:24.623Z,12.96
2023-08-28T23:12:51.655Z,12.96
2023-08-28T23:15:18.814Z,12.94
2023-08-28T23:17:45.717Z,12.92
2023-08-28T23:20:14.225Z,12.88
2023-08-28T23:22:41.819Z,12.81
2023-08-28T23:25:09.376Z,12.79
2023-08-28T23:27:36.809Z,12.75
2023-08-28T23:30:04.642Z,12.73
2023-08-28T23:32:32.633Z,12.66
2023-08-28T23:35:02.039Z,12.74
2023-08-28T23:37:30.465Z,12.73
2023-08-28T23:39:58.183Z,12.74
2023-08-28T23:42:25.370Z,12.82
2023-08-28T23:44:52.443Z,12.73
2023-08-28T23:47:19.662Z,12.71
2023-08-28T23:49:47.373Z,12.64
2023-08-28T23:52:14.411Z,12.65
2023-08-28T23:54:41.642Z,12.60
2023-08-28T23:57:08.608Z,12.56
2023-08-28T23:59:35.620Z,12.53
